KDGW

Converse County Airport

Douglas, Wyoming, USA
METAR KDGW 220453Z AUTO 13004KT 10SM CLR 14/13 A3006 RMK AO2 SLP133 T01390128
Observed Flight Rules
Jun-22 @ 04:53 UTC (43 minutes ago) Visual Flight Rules
Wind Visibility Clouds
130° at 4 knots 10 miles
  • Clear skies
Temperatures Readings
Current 14°C / 57°F
Dewpoint 13°C / 55°F
Humidity 94%
Altimeter 30.06" Hg
Pressure 1013.3 hPa
Elevation 1499
METAR KDGW 220453Z AUTO 13004KT 10SM CLR 14/13 A3006 RMK AO2 SLP133 T01390128
Observed Flight Rules
Jun-22 @ 04:53 UTC
(43 minutes ago)
VFR
Wind Visibility
130° at 4 knots 10 miles
Clouds
  • Clear skies
Temperature Dewpoint
14°C / 57°F 13°C / 55°F
Humidity Altimeter Pressure
94% 30.06" Hg 1013.3 hPa